sensor_id;sensor_type;location;lat;lon;timestamp;P1;durP1;ratioP1;P2;durP2;ratioP2
58342;SDS011;44150;42.602;23.398;2024-01-30T00:01:41;1.40;;;1.40;;
58342;SDS011;44150;42.602;23.398;2024-01-30T00:04:07;1.50;;;1.50;;
58342;SDS011;44150;42.602;23.398;2024-01-30T00:06:32;1.55;;;1.55;;
58342;SDS011;44150;42.602;23.398;2024-01-30T00:08:57;1.90;;;1.67;;
58342;SDS011;44150;42.602;23.398;2024-01-30T00:11:23;1.48;;;1.48;;
58342;SDS011;44150;42.602;23.398;2024-01-30T00:13:50;1.80;;;1.40;;
58342;SDS011;44150;42.602;23.398;2024-01-30T00:16:21;1.45;;;1.45;;
58342;SDS011;44150;42.602;23.398;2024-01-30T00:18:49;1.35;;;1.35;;
58342;SDS011;44150;42.602;23.398;2024-01-30T00:21:14;1.33;;;1.33;;
58342;SDS011;44150;42.602;23.398;2024-01-30T00:23:39;1.40;;;1.40;;
58342;SDS011;44150;42.602;23.398;2024-01-30T00:26:05;10.15;;;1.70;;
58342;SDS011;44150;42.602;23.398;2024-01-30T00:28:31;1.50;;;1.40;;
58342;SDS011;44150;42.602;23.398;2024-01-30T00:30:56;1.45;;;1.45;;
58342;SDS011;44150;42.602;23.398;2024-01-30T00:33:21;1.42;;;1.42;;
58342;SDS011;44150;42.602;23.398;2024-01-30T00:35:47;1.50;;;1.50;;
58342;SDS011;44150;42.602;23.398;2024-01-30T00:38:12;1.20;;;1.20;;
58342;SDS011;44150;42.602;23.398;2024-01-30T00:40:37;1.65;;;1.65;;
58342;SDS011;44150;42.602;23.398;2024-01-30T00:43:03;1.55;;;1.55;;
58342;SDS011;44150;42.602;23.398;2024-01-30T00:45:28;1.50;;;1.50;;
58342;SDS011;44150;42.602;23.398;2024-01-30T00:47:54;1.30;;;1.30;;
58342;SDS011;44150;42.602;23.398;2024-01-30T00:50:19;1.95;;;1.42;;
58342;SDS011;44150;42.602;23.398;2024-01-30T00:52:44;1.63;;;1.63;;
58342;SDS011;44150;42.602;23.398;2024-01-30T00:55:10;1.60;;;1.60;;
58342;SDS011;44150;42.602;23.398;2024-01-30T00:57:36;1.40;;;1.40;;
58342;SDS011;44150;42.602;23.398;2024-01-30T01:00:01;1.52;;;1.52;;
58342;SDS011;44150;42.602;23.398;2024-01-30T01:02:28;1.40;;;1.40;;
58342;SDS011;44150;42.602;23.398;2024-01-30T01:04:53;1.45;;;1.45;;
58342;SDS011;44150;42.602;23.398;2024-01-30T01:07:18;1.38;;;1.38;;
58342;SDS011;44150;42.602;23.398;2024-01-30T01:09:44;1.40;;;1.40;;
58342;SDS011;44150;42.602;23.398;2024-01-30T01:12:09;1.50;;;1.50;;
58342;SDS011;44150;42.602;23.398;2024-01-30T01:14:35;1.30;;;1.30;;
58342;SDS011;44150;42.602;23.398;2024-01-30T01:17:01;1.80;;;1.80;;
58342;SDS011;44150;42.602;23.398;2024-01-30T01:19:26;1.55;;;1.52;;
58342;SDS011;44150;42.602;23.398;2024-01-30T01:21:52;1.90;;;1.80;;
58342;SDS011;44150;42.602;23.398;2024-01-30T01:24:18;1.55;;;1.55;;
58342;SDS011;44150;42.602;23.398;2024-01-30T01:26:43;1.75;;;1.75;;
58342;SDS011;44150;42.602;23.398;2024-01-30T01:29:09;1.60;;;1.60;;
58342;SDS011;44150;42.602;23.398;2024-01-30T01:31:36;1.77;;;1.77;;
58342;SDS011;44150;42.602;23.398;2024-01-30T01:34:08;1.60;;;1.60;;
58342;SDS011;44150;42.602;23.398;2024-01-30T01:36:37;1.65;;;1.65;;
58342;SDS011;44150;42.602;23.398;2024-01-30T01:39:02;1.50;;;1.50;;
58342;SDS011;44150;42.602;23.398;2024-01-30T01:41:34;1.85;;;1.85;;
58342;SDS011;44150;42.602;23.398;2024-01-30T01:43:59;1.60;;;1.60;;
58342;SDS011;44150;42.602;23.398;2024-01-30T01:46:29;1.60;;;1.60;;
58342;SDS011;44150;42.602;23.398;2024-01-30T01:48:57;1.55;;;1.55;;
58342;SDS011;44150;42.602;23.398;2024-01-30T01:51:24;1.33;;;1.33;;
58342;SDS011;44150;42.602;23.398;2024-01-30T01:53:52;2.05;;;1.83;;
58342;SDS011;44150;42.602;23.398;2024-01-30T01:56:18;1.67;;;1.67;;
58342;SDS011;44150;42.602;23.398;2024-01-30T01:58:44;1.70;;;1.70;;
58342;SDS011;44150;42.602;23.398;2024-01-30T02:01:11;1.65;;;1.65;;
58342;SDS011;44150;42.602;23.398;2024-01-30T02:03:38;1.58;;;1.55;;
58342;SDS011;44150;42.602;23.398;2024-01-30T02:06:05;1.58;;;1.58;;
58342;SDS011;44150;42.602;23.398;2024-01-30T02:08:30;1.65;;;1.65;;
58342;SDS011;44150;42.602;23.398;2024-01-30T02:10:56;1.90;;;1.80;;
58342;SDS011;44150;42.602;23.398;2024-01-30T02:13:21;1.67;;;1.67;;
58342;SDS011;44150;42.602;23.398;2024-01-30T02:15:50;1.50;;;1.50;;
58342;SDS011;44150;42.602;23.398;2024-01-30T02:18:16;1.70;;;1.70;;
58342;SDS011;44150;42.602;23.398;2024-01-30T02:20:42;1.80;;;1.80;;
58342;SDS011;44150;42.602;23.398;2024-01-30T02:23:09;1.50;;;1.50;;
58342;SDS011;44150;42.602;23.398;2024-01-30T02:25:42;1.40;;;1.40;;
58342;SDS011;44150;42.602;23.398;2024-01-30T02:28:09;1.60;;;1.60;;
58342;SDS011;44150;42.602;23.398;2024-01-30T02:30:36;1.30;;;1.30;;
58342;SDS011;44150;42.602;23.398;2024-01-30T02:33:02;1.60;;;1.60;;
58342;SDS011;44150;42.602;23.398;2024-01-30T02:35:27;1.70;;;1.70;;
58342;SDS011;44150;42.602;23.398;2024-01-30T02:37:53;1.60;;;1.60;;
58342;SDS011;44150;42.602;23.398;2024-01-30T02:40:18;1.73;;;1.73;;
58342;SDS011;44150;42.602;23.398;2024-01-30T02:42:43;1.70;;;1.70;;
58342;SDS011;44150;42.602;23.398;2024-01-30T02:45:09;1.85;;;1.80;;
58342;SDS011;44150;42.602;23.398;2024-01-30T02:47:35;1.70;;;1.70;;
58342;SDS011;44150;42.602;23.398;2024-01-30T02:50:01;1.60;;;1.60;;
58342;SDS011;44150;42.602;23.398;2024-01-30T02:52:26;1.65;;;1.65;;
58342;SDS011;44150;42.602;23.398;2024-01-30T02:54:52;1.67;;;1.67;;
58342;SDS011;44150;42.602;23.398;2024-01-30T02:57:17;1.67;;;1.67;;
58342;SDS011;44150;42.602;23.398;2024-01-30T02:59:42;1.60;;;1.60;;
58342;SDS011;44150;42.602;23.398;2024-01-30T03:02:08;1.70;;;1.70;;
58342;SDS011;44150;42.602;23.398;2024-01-30T03:04:33;1.58;;;1.58;;
58342;SDS011;44150;42.602;23.398;2024-01-30T03:06:58;1.50;;;1.50;;
58342;SDS011;44150;42.602;23.398;2024-01-30T03:09:24;1.75;;;1.75;;
58342;SDS011;44150;42.602;23.398;2024-01-30T03:11:49;1.70;;;1.70;;
58342;SDS011;44150;42.602;23.398;2024-01-30T03:14:14;1.65;;;1.65;;
58342;SDS011;44150;42.602;23.398;2024-01-30T03:16:40;1.75;;;1.75;;
58342;SDS011;44150;42.602;23.398;2024-01-30T03:19:06;1.80;;;1.80;;
58342;SDS011;44150;42.602;23.398;2024-01-30T03:21:32;1.67;;;1.58;;
58342;SDS011;44150;42.602;23.398;2024-01-30T03:23:58;1.60;;;1.60;;
58342;SDS011;44150;42.602;23.398;2024-01-30T03:26:24;1.50;;;1.50;;
58342;SDS011;44150;42.602;23.398;2024-01-30T03:28:50;1.92;;;1.90;;
58342;SDS011;44150;42.602;23.398;2024-01-30T03:31:15;1.40;;;1.40;;
58342;SDS011;44150;42.602;23.398;2024-01-30T03:33:41;1.65;;;1.65;;
58342;SDS011;44150;42.602;23.398;2024-01-30T03:36:06;1.73;;;1.70;;
58342;SDS011;44150;42.602;23.398;2024-01-30T03:38:32;1.55;;;1.55;;
58342;SDS011;44150;42.602;23.398;2024-01-30T03:40:58;1.50;;;1.50;;
58342;SDS011;44150;42.602;23.398;2024-01-30T03:43:24;1.45;;;1.45;;
58342;SDS011;44150;42.602;23.398;2024-01-30T03:45:49;1.40;;;1.40;;
58342;SDS011;44150;42.602;23.398;2024-01-30T03:48:14;1.35;;;1.35;;
58342;SDS011;44150;42.602;23.398;2024-01-30T03:50:40;1.38;;;1.38;;
58342;SDS011;44150;42.602;23.398;2024-01-30T03:53:05;1.50;;;1.50;;
58342;SDS011;44150;42.602;23.398;2024-01-30T03:55:31;1.73;;;1.73;;
58342;SDS011;44150;42.602;23.398;2024-01-30T03:57:56;1.50;;;1.50;;
58342;SDS011;44150;42.602;23.398;2024-01-30T04:00:21;1.35;;;1.35;;
58342;SDS011;44150;42.602;23.398;2024-01-30T04:02:47;1.55;;;1.55;;
58342;SDS011;44150;42.602;23.398;2024-01-30T04:05:12;1.50;;;1.50;;
58342;SDS011;44150;42.602;23.398;2024-01-30T04:07:37;1.35;;;1.35;;
58342;SDS011;44150;42.602;23.398;2024-01-30T04:10:03;1.50;;;1.50;;
58342;SDS011;44150;42.602;23.398;2024-01-30T04:12:31;1.35;;;1.35;;
58342;SDS011;44150;42.602;23.398;2024-01-30T04:14:56;1.70;;;1.70;;
58342;SDS011;44150;42.602;23.398;2024-01-30T04:17:22;1.42;;;1.42;;
58342;SDS011;44150;42.602;23.398;2024-01-30T04:19:47;1.40;;;1.40;;
58342;SDS011;44150;42.602;23.398;2024-01-30T04:22:12;1.23;;;1.23;;
58342;SDS011;44150;42.602;23.398;2024-01-30T04:24:38;1.40;;;1.40;;
58342;SDS011;44150;42.602;23.398;2024-01-30T04:27:03;1.30;;;1.30;;
58342;SDS011;44150;42.602;23.398;2024-01-30T04:29:29;1.30;;;1.30;;
58342;SDS011;44150;42.602;23.398;2024-01-30T04:31:54;1.55;;;1.55;;
58342;SDS011;44150;42.602;23.398;2024-01-30T04:34:19;1.50;;;1.50;;
58342;SDS011;44150;42.602;23.398;2024-01-30T04:36:45;1.20;;;1.20;;
58342;SDS011;44150;42.602;23.398;2024-01-30T04:39:11;1.20;;;1.20;;
58342;SDS011;44150;42.602;23.398;2024-01-30T04:41:37;1.50;;;1.50;;
58342;SDS011;44150;42.602;23.398;2024-01-30T04:44:03;1.33;;;1.33;;
58342;SDS011;44150;42.602;23.398;2024-01-30T04:46:28;1.58;;;1.58;;
58342;SDS011;44150;42.602;23.398;2024-01-30T04:48:54;1.40;;;1.40;;
58342;SDS011;44150;42.602;23.398;2024-01-30T04:51:19;1.20;;;1.20;;
58342;SDS011;44150;42.602;23.398;2024-01-30T04:53:44;1.63;;;1.52;;
58342;SDS011;44150;42.602;23.398;2024-01-30T04:56:10;1.50;;;1.40;;
58342;SDS011;44150;42.602;23.398;2024-01-30T04:58:35;1.40;;;1.40;;
58342;SDS011;44150;42.602;23.398;2024-01-30T05:01:01;1.30;;;1.30;;
58342;SDS011;44150;42.602;23.398;2024-01-30T05:03:27;1.40;;;1.40;;
58342;SDS011;44150;42.602;23.398;2024-01-30T05:05:52;1.43;;;1.43;;
58342;SDS011;44150;42.602;23.398;2024-01-30T05:08:18;1.35;;;1.35;;
58342;SDS011;44150;42.602;23.398;2024-01-30T05:10:43;1.30;;;1.30;;
58342;SDS011;44150;42.602;23.398;2024-01-30T05:13:09;1.20;;;1.20;;
58342;SDS011;44150;42.602;23.398;2024-01-30T05:15:35;1.30;;;1.30;;
58342;SDS011;44150;42.602;23.398;2024-01-30T05:18:00;1.08;;;1.08;;
58342;SDS011;44150;42.602;23.398;2024-01-30T05:20:25;1.27;;;1.27;;
58342;SDS011;44150;42.602;23.398;2024-01-30T05:22:53;1.20;;;1.20;;
58342;SDS011;44150;42.602;23.398;2024-01-30T05:25:19;1.00;;;1.00;;
58342;SDS011;44150;42.602;23.398;2024-01-30T05:27:44;1.17;;;1.17;;
58342;SDS011;44150;42.602;23.398;2024-01-30T05:30:09;1.25;;;1.20;;
58342;SDS011;44150;42.602;23.398;2024-01-30T05:32:35;1.20;;;1.20;;
58342;SDS011;44150;42.602;23.398;2024-01-30T05:35:01;1.20;;;1.20;;
58342;SDS011;44150;42.602;23.398;2024-01-30T05:37:26;0.98;;;0.98;;
58342;SDS011;44150;42.602;23.398;2024-01-30T05:39:52;0.90;;;0.90;;
58342;SDS011;44150;42.602;23.398;2024-01-30T05:42:17;1.10;;;1.10;;
58342;SDS011;44150;42.602;23.398;2024-01-30T05:44:42;1.30;;;1.30;;
58342;SDS011;44150;42.602;23.398;2024-01-30T05:47:08;1.35;;;1.35;;
58342;SDS011;44150;42.602;23.398;2024-01-30T05:49:33;1.40;;;1.30;;
58342;SDS011;44150;42.602;23.398;2024-01-30T05:51:59;1.20;;;1.20;;
58342;SDS011;44150;42.602;23.398;2024-01-30T05:54:25;1.20;;;1.20;;
58342;SDS011;44150;42.602;23.398;2024-01-30T05:56:50;1.10;;;1.10;;
58342;SDS011;44150;42.602;23.398;2024-01-30T05:59:16;1.10;;;1.10;;
58342;SDS011;44150;42.602;23.398;2024-01-30T06:01:47;1.10;;;1.10;;
58342;SDS011;44150;42.602;23.398;2024-01-30T06:04:13;1.30;;;1.30;;
58342;SDS011;44150;42.602;23.398;2024-01-30T06:06:39;1.20;;;1.20;;
58342;SDS011;44150;42.602;23.398;2024-01-30T06:09:05;1.10;;;1.10;;
58342;SDS011;44150;42.602;23.398;2024-01-30T06:11:31;1.20;;;1.20;;
58342;SDS011;44150;42.602;23.398;2024-01-30T06:13:57;1.00;;;1.00;;
58342;SDS011;44150;42.602;23.398;2024-01-30T06:16:22;1.30;;;1.30;;
58342;SDS011;44150;42.602;23.398;2024-01-30T06:18:48;1.13;;;1.10;;
58342;SDS011;44150;42.602;23.398;2024-01-30T06:21:13;1.30;;;1.30;;
58342;SDS011;44150;42.602;23.398;2024-01-30T06:23:39;1.13;;;1.13;;
58342;SDS011;44150;42.602;23.398;2024-01-30T06:26:04;1.00;;;1.00;;
58342;SDS011;44150;42.602;23.398;2024-01-30T06:28:31;1.20;;;1.20;;
58342;SDS011;44150;42.602;23.398;2024-01-30T06:30:56;1.10;;;1.10;;
58342;SDS011;44150;42.602;23.398;2024-01-30T06:33:22;1.10;;;1.10;;
58342;SDS011;44150;42.602;23.398;2024-01-30T06:35:47;1.05;;;1.05;;
58342;SDS011;44150;42.602;23.398;2024-01-30T06:38:13;1.20;;;1.20;;
58342;SDS011;44150;42.602;23.398;2024-01-30T06:40:40;1.00;;;1.00;;
58342;SDS011;44150;42.602;23.398;2024-01-30T06:43:06;1.30;;;1.30;;
58342;SDS011;44150;42.602;23.398;2024-01-30T06:45:32;1.17;;;1.17;;
58342;SDS011;44150;42.602;23.398;2024-01-30T06:47:59;1.20;;;1.20;;
58342;SDS011;44150;42.602;23.398;2024-01-30T06:50:25;1.15;;;1.15;;
58342;SDS011;44150;42.602;23.398;2024-01-30T06:52:50;1.23;;;1.23;;
58342;SDS011;44150;42.602;23.398;2024-01-30T06:55:16;1.10;;;1.10;;
58342;SDS011;44150;42.602;23.398;2024-01-30T06:57:41;1.50;;;1.40;;
58342;SDS011;44150;42.602;23.398;2024-01-30T07:00:07;1.23;;;1.23;;
58342;SDS011;44150;42.602;23.398;2024-01-30T07:02:32;1.10;;;1.10;;
58342;SDS011;44150;42.602;23.398;2024-01-30T07:04:58;1.25;;;1.25;;
58342;SDS011;44150;42.602;23.398;2024-01-30T07:07:23;1.30;;;1.30;;
58342;SDS011;44150;42.602;23.398;2024-01-30T07:09:49;1.42;;;1.40;;
58342;SDS011;44150;42.602;23.398;2024-01-30T07:12:17;1.20;;;1.20;;
58342;SDS011;44150;42.602;23.398;2024-01-30T07:14:43;1.40;;;1.33;;
58342;SDS011;44150;42.602;23.398;2024-01-30T07:17:08;1.10;;;1.10;;
58342;SDS011;44150;42.602;23.398;2024-01-30T07:19:33;1.40;;;1.40;;
58342;SDS011;44150;42.602;23.398;2024-01-30T07:22:00;1.33;;;1.33;;
58342;SDS011;44150;42.602;23.398;2024-01-30T07:24:25;1.15;;;1.15;;
58342;SDS011;44150;42.602;23.398;2024-01-30T07:26:51;1.15;;;1.15;;
58342;SDS011;44150;42.602;23.398;2024-01-30T07:29:16;1.60;;;1.20;;
58342;SDS011;44150;42.602;23.398;2024-01-30T07:31:42;1.20;;;1.20;;
58342;SDS011;44150;42.602;23.398;2024-01-30T07:34:08;1.33;;;1.30;;
58342;SDS011;44150;42.602;23.398;2024-01-30T07:36:34;1.10;;;1.10;;
58342;SDS011;44150;42.602;23.398;2024-01-30T07:38:59;1.30;;;1.30;;
58342;SDS011;44150;42.602;23.398;2024-01-30T07:41:24;1.60;;;1.60;;
58342;SDS011;44150;42.602;23.398;2024-01-30T07:43:50;2.22;;;2.03;;
58342;SDS011;44150;42.602;23.398;2024-01-30T07:46:16;2.42;;;2.33;;
58342;SDS011;44150;42.602;23.398;2024-01-30T07:48:41;2.90;;;2.80;;
58342;SDS011;44150;42.602;23.398;2024-01-30T07:51:06;3.35;;;3.20;;
58342;SDS011;44150;42.602;23.398;2024-01-30T07:53:32;3.70;;;3.42;;
58342;SDS011;44150;42.602;23.398;2024-01-30T07:55:57;4.15;;;3.85;;
58342;SDS011;44150;42.602;23.398;2024-01-30T07:58:23;4.32;;;4.03;;
58342;SDS011;44150;42.602;23.398;2024-01-30T08:00:49;5.18;;;4.78;;
58342;SDS011;44150;42.602;23.398;2024-01-30T08:03:16;4.85;;;4.50;;
58342;SDS011;44150;42.602;23.398;2024-01-30T08:05:43;5.00;;;4.65;;
58342;SDS011;44150;42.602;23.398;2024-01-30T08:08:08;5.72;;;5.25;;
58342;SDS011;44150;42.602;23.398;2024-01-30T08:10:34;5.32;;;5.03;;
58342;SDS011;44150;42.602;23.398;2024-01-30T08:12:59;5.55;;;5.07;;
58342;SDS011;44150;42.602;23.398;2024-01-30T08:15:24;5.78;;;5.43;;
58342;SDS011;44150;42.602;23.398;2024-01-30T08:17:50;5.32;;;5.07;;
58342;SDS011;44150;42.602;23.398;2024-01-30T08:20:20;5.60;;;5.25;;
58342;SDS011;44150;42.602;23.398;2024-01-30T08:22:46;5.57;;;5.20;;
58342;SDS011;44150;42.602;23.398;2024-01-30T08:25:11;6.15;;;5.68;;
58342;SDS011;44150;42.602;23.398;2024-01-30T08:27:36;5.78;;;5.38;;
58342;SDS011;44150;42.602;23.398;2024-01-30T08:30:04;5.80;;;5.40;;
58342;SDS011;44150;42.602;23.398;2024-01-30T08:32:31;5.80;;;5.43;;
58342;SDS011;44150;42.602;23.398;2024-01-30T08:34:56;5.40;;;5.10;;
58342;SDS011;44150;42.602;23.398;2024-01-30T08:37:22;5.60;;;5.22;;
58342;SDS011;44150;42.602;23.398;2024-01-30T08:39:47;5.53;;;5.15;;
58342;SDS011;44150;42.602;23.398;2024-01-30T08:42:12;5.63;;;5.18;;
58342;SDS011;44150;42.602;23.398;2024-01-30T08:44:38;5.43;;;5.13;;
58342;SDS011;44150;42.602;23.398;2024-01-30T08:47:03;4.97;;;4.68;;
58342;SDS011;44150;42.602;23.398;2024-01-30T08:49:29;5.18;;;4.72;;
58342;SDS011;44150;42.602;23.398;2024-01-30T08:51:54;5.18;;;4.85;;
58342;SDS011;44150;42.602;23.398;2024-01-30T08:54:20;5.05;;;4.75;;
58342;SDS011;44150;42.602;23.398;2024-01-30T08:56:45;4.85;;;4.55;;
58342;SDS011;44150;42.602;23.398;2024-01-30T08:59:10;4.78;;;4.40;;
58342;SDS011;44150;42.602;23.398;2024-01-30T09:01:36;3.83;;;3.58;;
58342;SDS011;44150;42.602;23.398;2024-01-30T09:04:01;4.13;;;3.80;;
58342;SDS011;44150;42.602;23.398;2024-01-30T09:06:27;4.30;;;4.10;;
58342;SDS011;44150;42.602;23.398;2024-01-30T09:08:53;4.05;;;3.85;;
58342;SDS011;44150;42.602;23.398;2024-01-30T09:11:18;4.03;;;3.80;;
58342;SDS011;44150;42.602;23.398;2024-01-30T09:13:44;3.78;;;3.58;;
58342;SDS011;44150;42.602;23.398;2024-01-30T09:16:09;3.55;;;3.35;;
58342;SDS011;44150;42.602;23.398;2024-01-30T09:18:35;3.70;;;3.50;;
58342;SDS011;44150;42.602;23.398;2024-01-30T09:21:00;3.58;;;3.42;;
58342;SDS011;44150;42.602;23.398;2024-01-30T09:23:27;3.25;;;3.15;;
58342;SDS011;44150;42.602;23.398;2024-01-30T09:25:52;3.42;;;3.28;;
58342;SDS011;44150;42.602;23.398;2024-01-30T09:28:18;3.80;;;3.60;;
58342;SDS011;44150;42.602;23.398;2024-01-30T09:30:43;3.38;;;3.17;;
58342;SDS011;44150;42.602;23.398;2024-01-30T09:33:09;3.35;;;3.17;;
58342;SDS011;44150;42.602;23.398;2024-01-30T09:35:35;2.88;;;2.78;;
58342;SDS011;44150;42.602;23.398;2024-01-30T09:38:01;3.17;;;3.08;;
58342;SDS011;44150;42.602;23.398;2024-01-30T09:40:27;3.00;;;2.80;;
58342;SDS011;44150;42.602;23.398;2024-01-30T09:42:52;16.90;;;4.70;;
58342;SDS011;44150;42.602;23.398;2024-01-30T09:45:33;6.88;;;3.75;;
58342;SDS011;44150;42.602;23.398;2024-01-30T09:48:00;3.88;;;3.58;;
58342;SDS011;44150;42.602;23.398;2024-01-30T09:50:25;3.75;;;2.70;;
58342;SDS011;44150;42.602;23.398;2024-01-30T09:52:52;3.35;;;2.22;;
58342;SDS011;44150;42.602;23.398;2024-01-30T09:55:20;2.58;;;2.47;;
58342;SDS011;44150;42.602;23.398;2024-01-30T09:57:45;2.53;;;2.33;;
58342;SDS011;44150;42.602;23.398;2024-01-30T10:00:11;1.92;;;1.83;;
58342;SDS011;44150;42.602;23.398;2024-01-30T10:02:38;1.70;;;1.70;;
58342;SDS011;44150;42.602;23.398;2024-01-30T10:05:04;6.00;;;3.50;;
58342;SDS011;44150;42.602;23.398;2024-01-30T10:07:30;2.97;;;2.72;;
58342;SDS011;44150;42.602;23.398;2024-01-30T10:13:23;3.80;;;3.60;;
58342;SDS011;44150;42.602;23.398;2024-01-30T10:15:49;3.90;;;3.60;;
58342;SDS011;44150;42.602;23.398;2024-01-30T10:18:14;2.65;;;2.55;;
58342;SDS011;44150;42.602;23.398;2024-01-30T10:20:39;4.60;;;2.60;;
58342;SDS011;44150;42.602;23.398;2024-01-30T10:23:05;2.38;;;2.28;;
58342;SDS011;44150;42.602;23.398;2024-01-30T10:25:31;2.78;;;2.00;;
58342;SDS011;44150;42.602;23.398;2024-01-30T10:27:56;1.70;;;1.70;;
58342;SDS011;44150;42.602;23.398;2024-01-30T10:30:23;1.70;;;1.70;;
58342;SDS011;44150;42.602;23.398;2024-01-30T10:32:49;1.90;;;1.90;;
58342;SDS011;44150;42.602;23.398;2024-01-30T10:35:14;1.63;;;1.63;;
58342;SDS011;44150;42.602;23.398;2024-01-30T10:37:41;1.70;;;1.70;;
58342;SDS011;44150;42.602;23.398;2024-01-30T10:40:12;1.50;;;1.50;;
58342;SDS011;44150;42.602;23.398;2024-01-30T10:42:40;1.50;;;1.50;;
58342;SDS011;44150;42.602;23.398;2024-01-30T10:45:08;1.50;;;1.40;;
58342;SDS011;44150;42.602;23.398;2024-01-30T10:47:39;1.40;;;1.40;;
58342;SDS011;44150;42.602;23.398;2024-01-30T10:50:05;1.50;;;1.50;;
58342;SDS011;44150;42.602;23.398;2024-01-30T10:52:32;1.23;;;1.23;;
58342;SDS011;44150;42.602;23.398;2024-01-30T10:54:58;1.40;;;1.40;;
58342;SDS011;44150;42.602;23.398;2024-01-30T10:57:24;1.38;;;1.38;;
58342;SDS011;44150;42.602;23.398;2024-01-30T10:59:52;1.30;;;1.30;;
58342;SDS011;44150;42.602;23.398;2024-01-30T11:02:20;1.33;;;1.33;;
58342;SDS011;44150;42.602;23.398;2024-01-30T11:04:48;1.50;;;1.40;;
58342;SDS011;44150;42.602;23.398;2024-01-30T11:07:15;1.38;;;1.38;;
58342;SDS011;44150;42.602;23.398;2024-01-30T11:09:52;1.45;;;1.45;;
58342;SDS011;44150;42.602;23.398;2024-01-30T11:12:22;1.27;;;1.27;;
58342;SDS011;44150;42.602;23.398;2024-01-30T11:14:48;1.15;;;1.15;;
58342;SDS011;44150;42.602;23.398;2024-01-30T11:17:14;1.13;;;1.13;;
58342;SDS011;44150;42.602;23.398;2024-01-30T11:19:39;1.00;;;1.00;;
58342;SDS011;44150;42.602;23.398;2024-01-30T11:22:07;1.30;;;1.30;;
58342;SDS011;44150;42.602;23.398;2024-01-30T11:24:39;1.20;;;1.20;;
58342;SDS011;44150;42.602;23.398;2024-01-30T11:27:09;1.15;;;1.15;;
58342;SDS011;44150;42.602;23.398;2024-01-30T11:29:37;1.05;;;1.05;;
58342;SDS011;44150;42.602;23.398;2024-01-30T11:32:03;1.45;;;1.45;;
58342;SDS011;44150;42.602;23.398;2024-01-30T11:34:28;1.15;;;1.15;;
58342;SDS011;44150;42.602;23.398;2024-01-30T11:37:02;1.17;;;1.17;;
58342;SDS011;44150;42.602;23.398;2024-01-30T11:39:32;1.10;;;1.10;;
58342;SDS011;44150;42.602;23.398;2024-01-30T11:41:58;1.20;;;1.20;;
58342;SDS011;44150;42.602;23.398;2024-01-30T11:44:24;1.20;;;1.20;;
58342;SDS011;44150;42.602;23.398;2024-01-30T11:46:51;1.02;;;1.02;;
58342;SDS011;44150;42.602;23.398;2024-01-30T11:49:17;1.00;;;1.00;;
58342;SDS011;44150;42.602;23.398;2024-01-30T11:51:45;1.08;;;1.08;;
58342;SDS011;44150;42.602;23.398;2024-01-30T11:54:10;1.15;;;1.10;;
58342;SDS011;44150;42.602;23.398;2024-01-30T11:56:36;0.90;;;0.90;;
58342;SDS011;44150;42.602;23.398;2024-01-30T11:59:03;1.10;;;1.10;;
58342;SDS011;44150;42.602;23.398;2024-01-30T12:01:29;1.10;;;1.10;;
58342;SDS011;44150;42.602;23.398;2024-01-30T12:03:55;1.15;;;1.15;;
58342;SDS011;44150;42.602;23.398;2024-01-30T12:06:21;1.15;;;1.05;;
58342;SDS011;44150;42.602;23.398;2024-01-30T12:11:22;0.88;;;0.88;;
58342;SDS011;44150;42.602;23.398;2024-01-30T12:13:47;1.20;;;1.20;;
58342;SDS011;44150;42.602;23.398;2024-01-30T12:16:12;0.80;;;0.80;;
58342;SDS011;44150;42.602;23.398;2024-01-30T12:18:38;1.25;;;0.90;;
58342;SDS011;44150;42.602;23.398;2024-01-30T12:21:04;1.00;;;1.00;;
58342;SDS011;44150;42.602;23.398;2024-01-30T12:23:30;1.23;;;1.15;;
58342;SDS011;44150;42.602;23.398;2024-01-30T12:25:55;0.77;;;0.77;;
58342;SDS011;44150;42.602;23.398;2024-01-30T12:28:21;1.00;;;1.00;;
58342;SDS011;44150;42.602;23.398;2024-01-30T12:30:46;0.88;;;0.88;;
58342;SDS011;44150;42.602;23.398;2024-01-30T12:33:18;1.10;;;0.90;;
58342;SDS011;44150;42.602;23.398;2024-01-30T12:35:47;1.25;;;0.82;;
58342;SDS011;44150;42.602;23.398;2024-01-30T12:38:13;1.00;;;0.98;;
58342;SDS011;44150;42.602;23.398;2024-01-30T12:40:39;0.90;;;0.90;;
58342;SDS011;44150;42.602;23.398;2024-01-30T12:43:05;1.00;;;1.00;;
58342;SDS011;44150;42.602;23.398;2024-01-30T12:45:30;0.82;;;0.82;;
58342;SDS011;44150;42.602;23.398;2024-01-30T12:47:55;1.05;;;1.05;;
58342;SDS011;44150;42.602;23.398;2024-01-30T12:50:21;0.95;;;0.95;;
58342;SDS011;44150;42.602;23.398;2024-01-30T12:52:47;1.05;;;1.00;;
58342;SDS011;44150;42.602;23.398;2024-01-30T12:55:13;0.80;;;0.80;;
58342;SDS011;44150;42.602;23.398;2024-01-30T12:57:38;0.80;;;0.80;;
58342;SDS011;44150;42.602;23.398;2024-01-30T13:00:04;1.10;;;1.10;;
58342;SDS011;44150;42.602;23.398;2024-01-30T13:02:33;0.90;;;0.90;;
58342;SDS011;44150;42.602;23.398;2024-01-30T13:05:02;1.05;;;1.05;;
58342;SDS011;44150;42.602;23.398;2024-01-30T13:07:28;0.80;;;0.80;;
58342;SDS011;44150;42.602;23.398;2024-01-30T13:09:54;1.10;;;1.10;;
58342;SDS011;44150;42.602;23.398;2024-01-30T13:12:19;0.90;;;0.90;;
58342;SDS011;44150;42.602;23.398;2024-01-30T13:14:45;1.08;;;1.08;;
58342;SDS011;44150;42.602;23.398;2024-01-30T13:17:10;0.95;;;0.95;;
58342;SDS011;44150;42.602;23.398;2024-01-30T13:19:36;0.90;;;0.90;;
58342;SDS011;44150;42.602;23.398;2024-01-30T13:22:01;1.08;;;1.08;;
58342;SDS011;44150;42.602;23.398;2024-01-30T13:24:26;0.80;;;0.80;;
58342;SDS011;44150;42.602;23.398;2024-01-30T13:26:52;0.80;;;0.80;;
58342;SDS011;44150;42.602;23.398;2024-01-30T13:29:18;1.10;;;1.10;;
58342;SDS011;44150;42.602;23.398;2024-01-30T13:31:43;1.10;;;1.10;;
58342;SDS011;44150;42.602;23.398;2024-01-30T13:34:11;0.80;;;0.80;;
58342;SDS011;44150;42.602;23.398;2024-01-30T13:36:36;1.33;;;1.10;;
58342;SDS011;44150;42.602;23.398;2024-01-30T13:39:02;0.80;;;0.80;;
58342;SDS011;44150;42.602;23.398;2024-01-30T13:41:27;1.02;;;1.02;;
58342;SDS011;44150;42.602;23.398;2024-01-30T13:43:54;0.82;;;0.82;;
58342;SDS011;44150;42.602;23.398;2024-01-30T13:46:20;0.88;;;0.88;;
58342;SDS011;44150;42.602;23.398;2024-01-30T13:48:45;0.98;;;0.98;;
58342;SDS011;44150;42.602;23.398;2024-01-30T13:51:10;0.90;;;0.90;;
58342;SDS011;44150;42.602;23.398;2024-01-30T13:53:38;0.73;;;0.73;;
58342;SDS011;44150;42.602;23.398;2024-01-30T13:56:03;1.02;;;1.02;;
58342;SDS011;44150;42.602;23.398;2024-01-30T13:58:29;1.00;;;1.00;;
58342;SDS011;44150;42.602;23.398;2024-01-30T14:00:55;0.93;;;0.93;;
58342;SDS011;44150;42.602;23.398;2024-01-30T14:03:20;1.00;;;1.00;;
58342;SDS011;44150;42.602;23.398;2024-01-30T14:05:45;0.93;;;0.93;;
58342;SDS011;44150;42.602;23.398;2024-01-30T14:08:11;1.00;;;0.85;;
58342;SDS011;44150;42.602;23.398;2024-01-30T14:10:36;0.90;;;0.90;;
58342;SDS011;44150;42.602;23.398;2024-01-30T14:13:02;1.60;;;1.00;;
58342;SDS011;44150;42.602;23.398;2024-01-30T14:15:27;1.10;;;1.10;;
58342;SDS011;44150;42.602;23.398;2024-01-30T14:17:53;0.98;;;0.98;;
58342;SDS011;44150;42.602;23.398;2024-01-30T14:20:18;0.93;;;0.93;;
58342;SDS011;44150;42.602;23.398;2024-01-30T14:22:44;0.90;;;0.90;;
58342;SDS011;44150;42.602;23.398;2024-01-30T14:25:09;0.73;;;0.73;;
58342;SDS011;44150;42.602;23.398;2024-01-30T14:27:35;1.63;;;0.90;;
58342;SDS011;44150;42.602;23.398;2024-01-30T14:30:01;0.80;;;0.80;;
58342;SDS011;44150;42.602;23.398;2024-01-30T14:32:28;1.45;;;0.90;;